createdAt,value
2024-02-02T00:00:44.258Z,100376.05
2024-02-02T00:03:29.943Z,100385.33
2024-02-02T00:05:56.914Z,100385.00
2024-02-02T00:08:23.760Z,100385.52
2024-02-02T00:10:50.624Z,100393.25
2024-02-02T00:13:17.412Z,100388.79
2024-02-02T00:15:44.264Z,100393.60
2024-02-02T00:18:11.207Z,100391.19
2024-02-02T00:20:38.351Z,100393.92
2024-02-02T00:23:05.389Z,100393.23
2024-02-02T00:25:32.421Z,100391.00
2024-02-02T00:27:59.333Z,100393.75
2024-02-02T00:30:26.225Z,100394.95
2024-02-02T00:32:53.353Z,100395.64
2024-02-02T00:35:20.722Z,100396.51
2024-02-02T00:37:48.286Z,100394.44
2024-02-02T00:40:17.669Z,100397.02
2024-02-02T00:42:46.024Z,100392.71
2024-02-02T00:45:13.724Z,100387.56
2024-02-02T00:47:41.313Z,100393.41
2024-02-02T00:50:12.078Z,100403.39
2024-02-02T00:52:38.921Z,100405.11
2024-02-02T00:55:06.222Z,100402.54
2024-02-02T00:57:33.219Z,100410.77
2024-02-02T01:00:00.241Z,100410.59
2024-02-02T01:02:28.407Z,100414.38
2024-02-02T01:04:55.121Z,100416.95
2024-02-02T06:56:40.879Z,100629.81
2024-02-02T06:59:08.159Z,100631.55
2024-02-02T07:01:35.807Z,100629.33
2024-02-02T07:04:05.405Z,100627.95
2024-02-02T07:06:34.020Z,100629.36
2024-02-02T07:09:08.045Z,100629.73
2024-02-02T07:12:00.842Z,100633.08
2024-02-02T07:14:46.555Z,100633.11
2024-02-02T07:17:27.774Z,100632.63
2024-02-02T07:19:58.110Z,100637.44
2024-02-02T07:22:37.779Z,100637.56
2024-02-02T07:25:05.762Z,100636.41
2024-02-02T07:27:55.334Z,100627.16
2024-02-02T07:30:49.053Z,100634.35
2024-02-02T07:33:23.506Z,100634.51
2024-02-02T07:35:50.679Z,100637.23
2024-02-02T07:38:47.500Z,100640.88
2024-02-02T07:41:16.593Z,100641.30
2024-02-02T07:43:43.867Z,100642.48
2024-02-02T07:46:13.277Z,100642.18
2024-02-02T07:48:43.756Z,100640.14
2024-02-02T07:51:12.734Z,100645.48
2024-02-02T07:53:39.955Z,100643.20
2024-02-02T07:56:07.501Z,100646.80
2024-02-02T07:58:34.308Z,100644.30
2024-02-02T08:01:01.452Z,100649.56
2024-02-02T08:03:28.755Z,100651.98
2024-02-02T08:05:56.401Z,100652.97
2024-02-02T08:08:23.334Z,100652.55
2024-02-02T08:10:50.810Z,100648.46
2024-02-02T08:13:20.001Z,100646.73
2024-02-02T08:15:49.591Z,100647.15
2024-02-02T08:18:16.584Z,100642.19
2024-02-02T08:20:43.568Z,100646.28
2024-02-02T08:23:10.864Z,100640.92
2024-02-02T08:25:37.814Z,100639.36
2024-02-02T08:28:05.453Z,100645.22
2024-02-02T08:30:32.877Z,100640.63
2024-02-02T08:33:00.302Z,100636.80
2024-02-02T08:35:29.683Z,100626.95
2024-02-02T08:37:59.726Z,100625.96
2024-02-02T08:40:41.746Z,100629.90
2024-02-02T08:43:12.925Z,100634.68
2024-02-02T08:46:14.716Z,100630.36
2024-02-02T08:48:45.894Z,100632.37
2024-02-02T08:51:50.697Z,100629.95
2024-02-02T08:54:39.538Z,100632.27
2024-02-02T08:57:35.230Z,100630.89
2024-02-02T09:00:12.838Z,100622.55
2024-02-02T09:03:20.118Z,100621.71
2024-02-02T09:05:58.696Z,100620.92
2024-02-02T09:08:36.150Z,100624.36
2024-02-02T09:11:20.286Z,100631.12
2024-02-02T09:13:47.643Z,100643.42
2024-02-02T09:16:16.308Z,100644.88
2024-02-02T09:18:45.815Z,100640.96
2024-02-02T09:21:14.932Z,100641.05
2024-02-02T09:23:47.017Z,100636.78
2024-02-02T09:26:15.469Z,100643.64
2024-02-02T09:28:47.173Z,100644.62
2024-02-02T09:31:22.664Z,100647.01
2024-02-02T09:33:52.344Z,100649.48
2024-02-02T09:36:22.475Z,100644.61
2024-02-02T09:39:05.583Z,100649.30
2024-02-02T09:42:08.670Z,100644.81
2024-02-02T09:44:54.118Z,100644.16
2024-02-02T09:47:44.824Z,100640.27
2024-02-02T09:50:27.263Z,100652.13
2024-02-02T09:53:24.853Z,100645.48
2024-02-02T09:55:59.156Z,100658.31
2024-02-02T09:58:30.116Z,100655.61
2024-02-02T10:01:07.599Z,100654.85
2024-02-02T10:03:47.979Z,100655.13
2024-02-02T10:06:31.554Z,100654.98
2024-02-02T10:09:17.442Z,100653.69
2024-02-02T10:11:58.571Z,100658.61
2024-02-02T10:14:47.611Z,100652.95
2024-02-02T10:17:27.753Z,100651.34
2024-02-02T10:20:12.920Z,100651.17
2024-02-02T10:23:05.697Z,100647.81
2024-02-02T10:25:51.379Z,100649.61
2024-02-02T10:28:35.960Z,100644.96
2024-02-02T10:31:15.605Z,100648.86
2024-02-02T10:33:54.425Z,100653.34
2024-02-02T10:36:35.046Z,100656.81
2024-02-02T10:39:18.144Z,100653.67
2024-02-02T10:42:01.806Z,100648.75
2024-02-02T10:44:45.367Z,100644.17
2024-02-02T10:47:32.409Z,100651.46
2024-02-02T10:50:09.287Z,100639.45
2024-02-02T10:52:39.582Z,100635.17
2024-02-02T10:55:22.308Z,100634.26
2024-02-02T10:57:58.018Z,100625.52
2024-02-02T11:00:30.703Z,100628.52
2024-02-02T11:03:15.039Z,100630.06
2024-02-02T11:05:49.985Z,100631.09
2024-02-02T11:08:21.304Z,100630.71
2024-02-02T11:10:59.028Z,100633.39
2024-02-02T11:13:32.862Z,100633.13
2024-02-02T11:16:08.160Z,100634.90
2024-02-02T11:18:49.441Z,100631.28
2024-02-02T11:21:33.710Z,100627.45
2024-02-02T11:24:11.511Z,100624.50
2024-02-02T11:26:44.602Z,100620.83
2024-02-02T11:29:17.183Z,100619.02
2024-02-02T11:31:52.769Z,100613.21
2024-02-02T11:34:27.015Z,100615.52
2024-02-02T11:37:07.459Z,100615.23
2024-02-02T11:39:47.455Z,100611.40
2024-02-02T11:42:16.152Z,100605.55
2024-02-02T11:44:44.852Z,100610.10
2024-02-02T11:47:11.792Z,100601.02
2024-02-02T11:49:43.141Z,100606.92
2024-02-02T11:52:23.545Z,100607.33
2024-02-02T11:54:59.079Z,100603.75
2024-02-02T11:57:31.207Z,100597.75
2024-02-02T12:00:00.544Z,100601.75
2024-02-02T12:02:49.094Z,100597.99
2024-02-02T12:05:20.492Z,100603.07
2024-02-02T12:07:59.364Z,100598.08
2024-02-02T12:10:29.993Z,100595.69
2024-02-02T12:13:01.380Z,100592.45
2024-02-02T12:15:28.435Z,100590.91
2024-02-02T12:17:55.873Z,100587.46
2024-02-02T12:20:23.479Z,100591.27
2024-02-02T12:22:51.259Z,100584.87
2024-02-02T12:25:20.547Z,100586.42
2024-02-02T12:27:47.931Z,100580.77
2024-02-02T12:30:18.134Z,100579.08
2024-02-02T12:32:55.674Z,100571.30
2024-02-02T12:35:24.576Z,100576.79
2024-02-02T12:37:52.364Z,100567.09
2024-02-02T12:40:21.422Z,100555.02
2024-02-02T12:42:48.769Z,100555.19
2024-02-02T12:45:17.000Z,100549.85
2024-02-02T12:47:45.446Z,100554.17
2024-02-02T12:50:17.490Z,100549.83
2024-02-02T12:52:44.971Z,100542.70
2024-02-02T12:55:13.518Z,100549.62
2024-02-02T12:57:46.064Z,100557.73
2024-02-02T13:00:17.983Z,100549.30
2024-02-02T13:02:47.171Z,100543.67
2024-02-02T13:05:18.429Z,100551.11
2024-02-02T13:07:46.607Z,100550.06
2024-02-02T13:10:14.735Z,100552.88
2024-02-02T13:12:48.025Z,100542.40
2024-02-02T13:15:19.456Z,100536.91
2024-02-02T13:18:01.087Z,100538.70
2024-02-02T13:20:35.066Z,100536.69
2024-02-02T13:23:11.543Z,100527.39
2024-02-02T13:25:42.383Z,100529.77
2024-02-02T13:28:17.359Z,100522.04
2024-02-02T13:30:53.542Z,100521.16
2024-02-02T13:33:24.299Z,100519.63
2024-02-02T13:35:56.137Z,100512.41
2024-02-02T13:38:24.153Z,100517.27
2024-02-02T13:40:54.948Z,100512.13
2024-02-02T13:43:22.419Z,100514.05
2024-02-02T13:45:49.530Z,100510.63
2024-02-02T13:48:18.064Z,100514.42
2024-02-02T13:50:53.199Z,100510.46
2024-02-02T13:53:22.923Z,100510.98
2024-02-02T13:55:50.106Z,100502.21
2024-02-02T13:58:16.943Z,100507.91
2024-02-02T14:00:43.882Z,100493.79
2024-02-02T14:03:12.665Z,100485.05
2024-02-02T14:05:40.937Z,100490.71
2024-02-02T14:08:08.724Z,100483.30
2024-02-02T14:10:45.659Z,100484.00
2024-02-02T14:13:20.432Z,100479.69
2024-02-02T14:15:51.308Z,100473.64
2024-02-02T14:18:21.664Z,100472.11
2024-02-02T14:20:48.940Z,100470.89
2024-02-02T14:23:16.809Z,100466.07
2024-02-02T14:25:44.512Z,100460.90
2024-02-02T14:28:18.851Z,100455.39
2024-02-02T14:30:46.044Z,100449.69
2024-02-02T14:33:21.989Z,100440.73
2024-02-02T14:35:52.843Z,100441.62
2024-02-02T14:38:19.764Z,100435.95
2024-02-02T14:40:49.497Z,100429.75
2024-02-02T14:43:16.459Z,100426.30
2024-02-02T14:45:43.422Z,100424.77
2024-02-02T14:48:12.300Z,100422.02
2024-02-02T14:50:40.095Z,100421.34
2024-02-02T14:53:07.574Z,100416.53
2024-02-02T14:55:34.500Z,100414.30
2024-02-02T14:58:02.246Z,100411.02
2024-02-02T15:00:32.360Z,100404.49
2024-02-02T15:03:00.943Z,100402.60
2024-02-02T15:05:28.228Z,100400.53
2024-02-02T15:07:55.894Z,100398.48
2024-02-02T15:10:23.092Z,100391.08
2024-02-02T15:12:50.315Z,100390.92
2024-02-02T15:15:17.515Z,100385.95
2024-02-02T15:17:44.363Z,100379.94
2024-02-02T15:20:12.607Z,100383.06
2024-02-02T15:22:39.794Z,100384.80
2024-02-02T15:25:09.462Z,100384.11
2024-02-02T15:27:38.945Z,100384.61
2024-02-02T15:30:07.902Z,100381.88
2024-02-02T15:32:34.833Z,100380.48
2024-02-02T15:35:01.877Z,100376.17
2024-02-02T15:37:28.864Z,100375.48
2024-02-02T15:39:58.784Z,100377.88
2024-02-02T15:42:27.677Z,100368.58
2024-02-02T15:44:55.693Z,100368.75
2024-02-02T15:47:22.737Z,100364.10
2024-02-02T15:49:50.331Z,100363.42
2024-02-02T15:52:17.486Z,100364.48
2024-02-02T15:54:44.985Z,100359.48
2024-02-02T15:57:13.395Z,100357.56
2024-02-02T15:59:41.565Z,100356.02
2024-02-02T16:02:10.369Z,100355.34
2024-02-02T16:04:37.623Z,100355.52
2024-02-02T16:07:07.077Z,100350.86
2024-02-02T16:09:39.469Z,100342.92
2024-02-02T16:12:07.437Z,100337.23
2024-02-02T16:14:34.368Z,100334.31
2024-02-02T16:17:01.611Z,100324.48
2024-02-02T16:19:28.571Z,100315.02
2024-02-02T16:21:55.771Z,100309.17
2024-02-02T16:24:22.656Z,100302.11
2024-02-02T16:26:49.462Z,100291.27
2024-02-02T16:29:16.893Z,100285.23
2024-02-02T16:31:46.545Z,100289.70
2024-02-02T16:34:14.282Z,100281.98
2024-02-02T16:36:45.964Z,100279.59
2024-02-02T16:39:14.972Z,100274.59
2024-02-02T16:41:42.071Z,100273.05
2024-02-02T16:44:09.287Z,100272.73
2024-02-02T16:46:36.217Z,100276.00
2024-02-02T16:49:03.322Z,100271.02
2024-02-02T16:51:30.232Z,100266.39
2024-02-02T16:53:57.185Z,100255.22
2024-02-02T16:56:24.966Z,100236.45
2024-02-02T16:58:51.875Z,100229.70
2024-02-02T17:01:28.073Z,100232.48
2024-02-02T17:03:54.997Z,100225.79
2024-02-02T17:06:21.989Z,100208.30
2024-02-02T17:08:48.954Z,100204.90
2024-02-02T17:11:15.963Z,100204.74
2024-02-02T17:13:42.908Z,100195.30
2024-02-02T17:16:10.205Z,100195.69
2024-02-02T17:18:41.791Z,100195.04
2024-02-02T17:21:09.802Z,100195.41
2024-02-02T17:23:36.887Z,100185.09
2024-02-02T17:26:03.788Z,100175.11
2024-02-02T17:28:31.158Z,100177.33
2024-02-02T17:30:57.958Z,100170.80
2024-02-02T17:33:24.922Z,100170.96
2024-02-02T17:35:51.990Z,100171.31
2024-02-02T17:38:18.930Z,100170.12
2024-02-02T17:40:47.474Z,100162.90
2024-02-02T17:43:14.597Z,100160.16
2024-02-02T17:45:42.113Z,100156.02
2024-02-02T17:48:10.076Z,100144.30
2024-02-02T17:50:37.278Z,100137.42
2024-02-02T17:53:04.249Z,100141.19
2024-02-02T17:55:31.550Z,100135.17
2024-02-02T17:57:58.487Z,100127.59
2024-02-02T18:00:26.005Z,100125.18
2024-02-02T18:02:53.081Z,100117.61
2024-02-02T18:05:20.012Z,100112.27
2024-02-02T18:07:52.249Z,100105.56
2024-02-02T18:10:47.939Z,100099.23
2024-02-02T18:13:20.607Z,100099.23
2024-02-02T18:15:50.303Z,100098.73
2024-02-02T18:18:29.597Z,100092.55
2024-02-02T18:20:56.793Z,100083.80
2024-02-02T18:23:25.766Z,100077.77
2024-02-02T18:25:52.696Z,100074.19
2024-02-02T18:28:24.669Z,100068.88
2024-02-02T18:30:56.366Z,100066.48
2024-02-02T18:33:24.320Z,100056.70
2024-02-02T18:36:01.648Z,100042.45
2024-02-02T18:38:30.021Z,100042.31
2024-02-02T18:40:56.838Z,100048.38
2024-02-02T18:43:27.708Z,100049.09
2024-02-02T18:45:54.618Z,100045.65
2024-02-02T18:48:24.930Z,100032.60
2024-02-02T18:50:53.021Z,100030.69
2024-02-02T18:53:19.947Z,100026.74
2024-02-02T18:55:50.083Z,100018.67
2024-02-02T18:58:17.173Z,100011.31
2024-02-02T19:00:44.156Z,100011.52
2024-02-02T19:03:13.189Z,100007.92
2024-02-02T19:05:40.538Z,100000.21
2024-02-02T19:08:08.687Z,99993.17
2024-02-02T19:10:35.524Z,99988.18
2024-02-02T19:13:02.499Z,99986.30
2024-02-02T19:15:29.432Z,99983.39
2024-02-02T19:17:56.440Z,99973.79
2024-02-02T19:20:23.368Z,99969.14
2024-02-02T19:22:52.484Z,99958.00
2024-02-02T19:25:19.419Z,99960.20
2024-02-02T19:27:46.354Z,99955.59
2024-02-02T19:30:15.370Z,99955.75
2024-02-02T19:32:42.453Z,99951.96
2024-02-02T19:35:10.456Z,99950.77
2024-02-02T19:37:37.333Z,99948.19
2024-02-02T19:40:04.875Z,99939.21
2024-02-02T19:42:31.735Z,99934.58
2024-02-02T19:44:58.638Z,99931.64
2024-02-02T19:47:25.452Z,99926.13
2024-02-02T19:49:52.813Z,99912.88
2024-02-02T19:52:19.857Z,99901.35
2024-02-02T19:54:47.035Z,99890.17
2024-02-02T19:57:13.976Z,99883.46
2024-02-02T19:59:41.046Z,99884.16
2024-02-02T20:02:11.317Z,99883.11
2024-02-02T20:04:38.153Z,99877.92
2024-02-02T20:07:05.573Z,99866.57
2024-02-02T20:09:32.562Z,99868.45
2024-02-02T20:11:59.464Z,99857.60
2024-02-02T20:14:26.252Z,99855.00
2024-02-02T20:16:53.106Z,99843.32
2024-02-02T20:19:20.397Z,99830.41
2024-02-02T20:21:48.684Z,99824.89
2024-02-02T20:24:15.630Z,99825.23
2024-02-02T20:26:42.628Z,99820.94
2024-02-02T20:29:09.819Z,99820.42
2024-02-02T20:31:37.174Z,99816.16
2024-02-02T20:34:04.240Z,99813.24
2024-02-02T20:36:32.346Z,99804.84
2024-02-02T20:38:59.238Z,99802.60
2024-02-02T20:41:27.188Z,99803.30
2024-02-02T20:43:55.098Z,99800.92
2024-02-02T20:46:22.135Z,99805.05
2024-02-02T20:48:50.410Z,99799.38
2024-02-02T20:51:17.676Z,99791.46
2024-02-02T20:53:44.724Z,99788.40
2024-02-02T20:56:11.659Z,99775.20
2024-02-02T20:58:38.522Z,99769.71
2024-02-02T21:01:05.599Z,99766.81
2024-02-02T21:03:32.725Z,99764.26
2024-02-02T21:06:00.586Z,99756.73
2024-02-02T21:08:27.677Z,99753.14
2024-02-02T21:10:54.571Z,99752.30
2024-02-02T21:13:21.864Z,99751.59
2024-02-02T21:15:50.372Z,99741.98
2024-02-02T21:18:17.917Z,99726.31
2024-02-02T21:20:46.975Z,99711.17
2024-02-02T21:23:14.201Z,99716.21
2024-02-02T21:25:42.851Z,99700.25
2024-02-02T21:28:10.065Z,99701.26
2024-02-02T21:30:36.928Z,99690.60
2024-02-02T21:33:04.124Z,99684.23
2024-02-02T21:35:31.027Z,99686.47
2024-02-02T21:37:58.149Z,99689.21
2024-02-02T21:40:25.120Z,99689.56
2024-02-02T21:42:55.425Z,99676.16
2024-02-02T21:45:22.807Z,99680.10
2024-02-02T21:47:49.911Z,99683.89
2024-02-02T21:50:17.368Z,99682.86
2024-02-02T21:52:44.917Z,99676.49
2024-02-02T21:55:12.223Z,99675.43
2024-02-02T21:57:39.387Z,99672.62
2024-02-02T22:00:08.471Z,99668.50
2024-02-02T22:02:35.456Z,99661.42
2024-02-02T22:05:02.760Z,99658.66
2024-02-02T22:07:29.961Z,99657.84
2024-02-02T22:09:57.502Z,99651.10
2024-02-02T22:12:24.405Z,99651.74
2024-02-02T22:14:51.252Z,99639.52
2024-02-02T22:17:19.383Z,99639.31
2024-02-02T22:19:46.732Z,99637.23
2024-02-02T22:22:13.654Z,99631.37
2024-02-02T22:24:43.051Z,99622.07
2024-02-02T22:27:11.064Z,99617.06
2024-02-02T22:29:38.047Z,99615.13
2024-02-02T22:32:05.703Z,99603.39
2024-02-02T22:34:32.719Z,99599.39
2024-02-02T22:36:59.550Z,99594.18
2024-02-02T22:39:26.397Z,99594.69
2024-02-02T22:41:53.911Z,99590.88
2024-02-02T22:44:22.175Z,99588.10
2024-02-02T22:46:49.029Z,99593.11
2024-02-02T22:49:16.447Z,99596.51
2024-02-02T22:51:50.624Z,99593.37
2024-02-02T22:54:18.677Z,99598.67
2024-02-02T22:56:45.905Z,99600.56
2024-02-02T22:59:12.822Z,99593.14
2024-02-02T23:01:40.834Z,99594.14
2024-02-02T23:04:11.335Z,99583.62
2024-02-02T23:06:38.440Z,99571.54
2024-02-02T23:09:05.436Z,99570.79
2024-02-02T23:11:32.221Z,99561.85
2024-02-02T23:13:59.282Z,99559.06
2024-02-02T23:16:26.725Z,99547.52
2024-02-02T23:18:54.024Z,99539.41
2024-02-02T23:21:21.912Z,99528.52
2024-02-02T23:23:48.953Z,99516.95
2024-02-02T23:26:16.268Z,99504.20
2024-02-02T23:28:43.230Z,99510.67
2024-02-02T23:31:10.118Z,99510.11
2024-02-02T23:33:37.060Z,99502.78
2024-02-02T23:36:04.084Z,99507.84
2024-02-02T23:38:30.905Z,99508.02
2024-02-02T23:40:57.983Z,99492.18
2024-02-02T23:43:25.333Z,99484.04
2024-02-02T23:45:52.276Z,99483.15
2024-02-02T23:48:19.337Z,99476.90
2024-02-02T23:50:46.397Z,99471.52
2024-02-02T23:53:13.464Z,99453.08
2024-02-02T23:55:40.347Z,99449.77
2024-02-02T23:58:07.702Z,99445.27
